Time,TemperatureF,DewpointF,PressureIn,WindDirection,WindDirectionDegrees,WindSpeedMPH,WindSpeedGustMPH,Humidity,HourlyPrecipIn,Conditions,Clouds,dailyrainin,SolarRadiationWatts/m^2,SoftwareType,DateUTC
2013-12-24 00:03:00,39.3,32.7,30.29,East,92,1.0,1.0,77,0.00,,,0.00,0,Wunderground v.1.15,2013-12-24 08:03:00,
2013-12-24 00:08:00,39.0,32.4,30.29,East,92,0.0,1.0,77,0.00,,,0.00,0,Wunderground v.1.15,2013-12-24 08:08:00,
2013-12-24 00:13:00,38.8,32.2,30.29,East,92,0.0,0.0,77,0.00,,,0.00,0,Wunderground v.1.15,2013-12-24 08:13:00,
2013-12-24 00:18:00,38.5,31.9,30.29,East,92,0.0,0.0,77,0.00,,,0.00,0,Wunderground v.1.15,2013-12-24 08:18:00,
2013-12-24 00:24:00,38.2,31.6,30.29,East,92,0.0,0.0,77,0.00,,,0.00,0,Wunderground v.1.15,2013-12-24 08:24:00,
2013-12-24 00:29:00,38.0,31.4,30.29,East,92,0.0,0.0,77,0.00,,,0.00,0,Wunderground v.1.15,2013-12-24 08:29:00,
2013-12-24 00:34:00,38.0,32.1,30.29,East,92,0.0,0.0,79,0.00,,,0.00,0,Wunderground v.1.15,2013-12-24 08:34:00,
2013-12-24 00:40:00,38.2,32.6,30.29,East,92,0.0,0.0,80,0.00,,,0.00,0,Wunderground v.1.15,2013-12-24 08:40:00,
2013-12-24 00:46:00,38.1,32.2,30.28,East,91,0.0,2.0,79,0.00,,,0.00,0,Wunderground v.1.15,2013-12-24 08:46:00,
2013-12-24 00:52:00,38.0,32.1,30.28,East,91,1.0,1.0,79,0.00,,,0.00,0,Wunderground v.1.15,2013-12-24 08:52:00,
2013-12-24 00:57:00,37.9,32.0,30.29,East,91,0.0,1.0,79,0.00,,,0.00,0,Wunderground v.1.15,2013-12-24 08:57:00,
2013-12-24 01:02:00,37.8,32.2,30.29,East,91,0.0,0.0,80,0.00,,,0.00,0,Wunderground v.1.15,2013-12-24 09:02:00,
2013-12-24 01:08:00,37.9,32.3,30.29,East,91,0.0,1.0,80,0.00,,,0.00,0,Wunderground v.1.15,2013-12-24 09:08:00,
2013-12-24 01:14:00,38.3,33.0,30.29,East,90,1.0,1.0,81,0.00,,,0.00,0,Wunderground v.1.15,2013-12-24 09:14:00,
2013-12-24 01:19:00,38.3,32.4,30.29,East,90,0.0,1.0,79,0.00,,,0.00,0,Wunderground v.1.15,2013-12-24 09:19:00,
2013-12-24 01:24:00,38.2,31.9,30.29,East,90,0.0,0.0,78,0.00,,,0.00,0,Wunderground v.1.15,2013-12-24 09:24:00,
2013-12-24 01:30:00,37.9,31.7,30.29,East,90,0.0,0.0,78,0.00,,,0.00,0,Wunderground v.1.15,2013-12-24 09:30:00,
2013-12-24 01:35:00,37.7,31.5,30.29,East,90,0.0,0.0,78,0.00,,,0.00,0,Wunderground v.1.15,2013-12-24 09:35:00,
2013-12-24 01:40:00,37.5,31.3,30.29,East,90,0.0,0.0,78,0.00,,,0.00,0,Wunderground v.1.15,2013-12-24 09:40:00,
2013-12-24 01:46:00,37.2,31.3,30.29,East,90,0.0,1.0,79,0.00,,,0.00,0,Wunderground v.1.15,2013-12-24 09:46:00,
2013-12-24 01:51:00,37.3,31.7,30.29,East,90,0.0,0.0,80,0.00,,,0.00,0,Wunderground v.1.15,2013-12-24 09:51:00,
2013-12-24 01:57:00,37.2,31.3,30.29,East,90,0.0,0.0,79,0.00,,,0.00,0,Wunderground v.1.15,2013-12-24 09:57:00,
2013-12-24 02:02:00,37.1,31.2,30.29,East,90,0.0,0.0,79,0.00,,,0.00,0,Wunderground v.1.15,2013-12-24 10:02:00,
2013-12-24 02:07:00,37.0,30.8,30.29,East,90,0.0,0.0,78,0.00,,,0.00,0,Wunderground v.1.15,2013-12-24 10:07:00,
2013-12-24 02:13:00,37.0,31.1,30.29,East,90,0.0,0.0,79,0.00,,,0.00,0,Wunderground v.1.15,2013-12-24 10:13:00,
2013-12-24 02:18:00,36.9,31.0,30.29,East,90,0.0,0.0,79,0.00,,,0.00,0,Wunderground v.1.15,2013-12-24 10:18:00,
2013-12-24 02:23:00,36.8,30.9,30.29,East,90,0.0,0.0,79,0.00,,,0.00,0,Wunderground v.1.15,2013-12-24 10:23:00,
2013-12-24 02:29:00,36.7,30.8,30.30,East,90,0.0,0.0,79,0.00,,,0.00,0,Wunderground v.1.15,2013-12-24 10:29:00,
2013-12-24 02:34:00,36.6,30.7,30.30,East,90,0.0,1.0,79,0.00,,,0.00,0,Wunderground v.1.15,2013-12-24 10:34:00,
2013-12-24 02:40:00,36.2,30.3,30.30,East,90,1.0,1.0,79,0.00,,,0.00,0,Wunderground v.1.15,2013-12-24 10:40:00,
2013-12-24 02:45:00,36.1,30.5,30.30,East,90,0.0,1.0,80,0.00,,,0.00,0,Wunderground v.1.15,2013-12-24 10:45:00,
2013-12-24 02:50:00,36.0,31.0,30.30,East,90,0.0,0.0,82,0.00,,,0.00,0,Wunderground v.1.15,2013-12-24 10:50:00,
2013-12-24 02:56:00,35.9,30.3,30.29,East,90,0.0,1.0,80,0.00,,,0.00,0,Wunderground v.1.15,2013-12-24 10:56:00,
2013-12-24 03:01:00,35.8,30.5,30.29,East,90,0.0,0.0,81,0.00,,,0.00,0,Wunderground v.1.15,2013-12-24 11:01:00,
2013-12-24 03:07:00,36.0,31.3,30.29,East,90,0.0,1.0,83,0.00,,,0.00,0,Wunderground v.1.15,2013-12-24 11:07:00,
2013-12-24 03:12:00,36.5,31.8,30.29,East,90,0.0,0.0,83,0.00,,,0.00,0,Wunderground v.1.15,2013-12-24 11:12:00,
2013-12-24 03:17:00,36.8,31.8,30.29,East,85,0.0,1.0,82,0.00,,,0.00,0,Wunderground v.1.15,2013-12-24 11:17:00,
2013-12-24 03:23:00,37.0,31.7,30.29,East,85,0.0,0.0,81,0.00,,,0.00,0,Wunderground v.1.15,2013-12-24 11:23:00,
2013-12-24 03:28:00,36.8,30.9,30.29,East,85,0.0,0.0,79,0.00,,,0.00,0,Wunderground v.1.15,2013-12-24 11:28:00,
2013-12-24 03:33:00,36.9,31.6,30.29,East,86,0.0,1.0,81,0.00,,,0.00,0,Wunderground v.1.15,2013-12-24 11:33:00,
2013-12-24 03:38:00,37.3,32.0,30.29,East,87,1.0,3.0,81,0.00,,,0.00,0,Wunderground v.1.15,2013-12-24 11:38:00,
2013-12-24 03:43:00,38.0,32.7,30.28,East,88,2.0,2.0,81,0.00,,,0.00,0,Wunderground v.1.15,2013-12-24 11:43:00,
2013-12-24 03:49:00,38.3,32.0,30.28,East,86,1.0,2.0,78,0.00,,,0.00,0,Wunderground v.1.15,2013-12-24 11:49:00,
2013-12-24 03:54:00,38.0,32.1,30.28,East,85,1.0,2.0,79,0.00,,,0.00,0,Wunderground v.1.15,2013-12-24 11:54:00,
2013-12-24 03:59:00,37.8,31.6,30.28,East,85,0.0,2.0,78,0.00,,,0.00,0,Wunderground v.1.15,2013-12-24 11:59:00,
2013-12-24 04:04:00,37.6,31.7,30.28,East,85,0.0,0.0,79,0.00,,,0.00,0,Wunderground v.1.15,2013-12-24 12:04:00,
2013-12-24 04:10:00,37.4,31.5,30.28,East,85,0.0,0.0,79,0.00,,,0.00,0,Wunderground v.1.15,2013-12-24 12:10:00,
2013-12-24 04:15:00,37.4,31.8,30.28,East,85,0.0,0.0,80,0.00,,,0.00,0,Wunderground v.1.15,2013-12-24 12:15:00,
2013-12-24 04:20:00,37.3,31.7,30.28,East,85,0.0,0.0,80,0.00,,,0.00,0,Wunderground v.1.15,2013-12-24 12:20:00,
2013-12-24 04:26:00,37.2,31.6,30.28,East,85,0.0,0.0,80,0.00,,,0.00,0,Wunderground v.1.15,2013-12-24 12:26:00,
2013-12-24 04:31:00,37.0,30.8,30.28,East,85,0.0,0.0,78,0.00,,,0.00,0,Wunderground v.1.15,2013-12-24 12:31:00,
2013-12-24 04:37:00,36.6,30.4,30.28,East,86,0.0,0.0,78,0.00,,,0.00,0,Wunderground v.1.15,2013-12-24 12:37:00,
2013-12-24 04:42:00,36.4,30.2,30.28,East,86,0.0,0.0,78,0.00,,,0.00,0,Wunderground v.1.15,2013-12-24 12:42:00,
2013-12-24 04:47:00,36.0,29.8,30.28,East,86,0.0,0.0,78,0.00,,,0.00,0,Wunderground v.1.15,2013-12-24 12:47:00,
2013-12-24 04:52:00,35.9,30.3,30.28,East,86,0.0,0.0,80,0.00,,,0.00,0,Wunderground v.1.15,2013-12-24 12:52:00,
2013-12-24 04:57:00,35.9,30.3,30.28,East,86,0.0,0.0,80,0.00,,,0.00,0,Wunderground v.1.15,2013-12-24 12:57:00,
2013-12-24 05:03:00,35.9,30.6,30.28,East,86,0.0,1.0,81,0.00,,,0.00,0,Wunderground v.1.15,2013-12-24 13:03:00,
2013-12-24 05:08:00,36.1,31.1,30.28,East,86,0.0,1.0,82,0.00,,,0.00,0,Wunderground v.1.15,2013-12-24 13:08:00,
2013-12-24 05:13:00,36.1,31.1,30.28,East,86,0.0,0.0,82,0.00,,,0.00,0,Wunderground v.1.15,2013-12-24 13:13:00,
2013-12-24 05:19:00,36.4,31.7,30.28,East,87,0.0,2.0,83,0.00,,,0.00,0,Wunderground v.1.15,2013-12-24 13:19:00,
2013-12-24 05:24:00,36.8,32.1,30.28,East,88,1.0,2.0,83,0.00,,,0.00,0,Wunderground v.1.15,2013-12-24 13:24:00,
2013-12-24 05:29:00,36.8,31.8,30.28,East,88,1.0,2.0,82,0.00,,,0.00,0,Wunderground v.1.15,2013-12-24 13:29:00,
2013-12-24 05:34:00,36.9,31.9,30.28,East,88,1.0,1.0,82,0.00,,,0.00,0,Wunderground v.1.15,2013-12-24 13:34:00,
2013-12-24 05:40:00,36.8,31.5,30.28,East,88,0.0,0.0,81,0.00,,,0.00,0,Wunderground v.1.15,2013-12-24 13:40:00,
2013-12-24 05:45:00,36.6,31.3,30.28,East,88,0.0,0.0,81,0.00,,,0.00,0,Wunderground v.1.15,2013-12-24 13:45:00,
2013-12-24 05:50:00,36.5,31.2,30.29,East,88,0.0,0.0,81,0.00,,,0.00,0,Wunderground v.1.15,2013-12-24 13:50:00,
2013-12-24 05:56:00,36.4,31.1,30.29,WSW,257,0.0,1.0,81,0.00,,,0.00,0,Wunderground v.1.15,2013-12-24 13:56:00,
2013-12-24 06:02:00,36.3,31.3,30.29,East,101,0.0,2.0,82,0.00,,,0.00,0,Wunderground v.1.15,2013-12-24 14:02:00,
2013-12-24 06:08:00,36.4,31.7,30.29,East,92,1.0,2.0,83,0.00,,,0.00,0,Wunderground v.1.15,2013-12-24 14:08:00,
2013-12-24 06:13:00,36.4,31.7,30.29,East,90,1.0,1.0,83,0.00,,,0.00,0,Wunderground v.1.15,2013-12-24 14:13:00,
2013-12-24 06:18:00,36.4,31.7,30.29,East,90,1.0,2.0,83,0.00,,,0.00,0,Wunderground v.1.15,2013-12-24 14:18:00,
2013-12-24 06:24:00,36.3,31.6,30.29,East,93,2.0,5.0,83,0.00,,,0.00,0,Wunderground v.1.15,2013-12-24 14:24:00,
2013-12-24 06:29:00,36.3,31.6,30.30,East,89,2.0,5.0,83,0.00,,,0.00,0,Wunderground v.1.15,2013-12-24 14:29:00,
2013-12-24 06:34:00,36.2,31.5,30.29,East,87,2.0,2.0,83,0.00,,,0.00,0,Wunderground v.1.15,2013-12-24 14:34:00,
2013-12-24 06:39:00,36.2,31.8,30.29,ESE,116,2.0,4.0,84,0.00,,,0.00,0,Wunderground v.1.15,2013-12-24 14:39:00,
2013-12-24 06:44:00,36.2,31.5,30.29,ESE,111,4.0,5.0,83,0.00,,,0.00,0,Wunderground v.1.15,2013-12-24 14:44:00,
2013-12-24 06:50:00,36.0,31.3,30.29,ESE,117,5.0,5.0,83,0.00,,,0.00,0,Wunderground v.1.15,2013-12-24 14:50:00,
2013-12-24 06:55:00,35.9,31.2,30.29,ESE,103,5.0,6.0,83,0.00,,,0.00,0,Wunderground v.1.15,2013-12-24 14:55:00,
2013-12-24 07:00:00,35.8,31.1,30.29,East,96,4.0,4.0,83,0.00,,,0.00,0,Wunderground v.1.15,2013-12-24 15:00:00,
2013-12-24 07:06:00,35.8,31.4,30.29,ESE,111,4.0,5.0,84,0.00,,,0.00,5,Wunderground v.1.15,2013-12-24 15:06:00,
2013-12-24 07:11:00,36.0,31.6,30.29,East,99,4.0,5.0,84,0.00,,,0.00,7,Wunderground v.1.15,2013-12-24 15:11:00,
2013-12-24 07:17:00,36.1,31.7,30.29,East,93,3.0,5.0,84,0.00,,,0.00,12,Wunderground v.1.15,2013-12-24 15:17:00,
2013-12-24 07:22:00,36.3,31.6,30.29,East,94,3.0,3.0,83,0.00,,,0.00,18,Wunderground v.1.15,2013-12-24 15:22:00,
2013-12-24 07:27:00,36.3,31.6,30.29,East,84,2.0,3.0,83,0.00,,,0.00,23,Wunderground v.1.15,2013-12-24 15:27:00,
2013-12-24 07:32:00,36.3,31.6,30.29,East,86,1.0,2.0,83,0.00,,,0.00,30,Wunderground v.1.15,2013-12-24 15:32:00,
2013-12-24 07:38:00,36.4,32.0,30.29,East,86,1.0,2.0,84,0.00,,,0.00,37,Wunderground v.1.15,2013-12-24 15:38:00,
2013-12-24 07:43:00,36.8,32.4,30.29,East,90,2.0,2.0,84,0.00,,,0.00,47,Wunderground v.1.15,2013-12-24 15:43:00,
2013-12-24 07:49:00,37.5,33.1,30.29,ESE,103,2.0,2.0,84,0.00,,,0.00,58,Wunderground v.1.15,2013-12-24 15:49:00,
2013-12-24 07:54:00,38.1,33.1,30.29,ESE,105,2.0,5.0,82,0.00,,,0.00,63,Wunderground v.1.15,2013-12-24 15:54:00,
2013-12-24 07:59:00,38.6,33.3,30.29,ESE,105,2.0,5.0,81,0.00,,,0.00,63,Wunderground v.1.15,2013-12-24 15:59:00,
2013-12-24 08:04:00,39.0,33.7,30.29,East,94,3.0,4.0,81,0.00,,,0.00,56,Wunderground v.1.15,2013-12-24 16:04:00,
2013-12-24 08:10:00,39.0,33.4,30.29,ENE,67,2.0,2.0,80,0.00,,,0.00,49,Wunderground v.1.15,2013-12-24 16:10:00,
2013-12-24 08:15:00,39.2,33.5,30.29,ESE,111,2.0,3.0,80,0.00,,,0.00,44,Wunderground v.1.15,2013-12-24 16:15:00,
2013-12-24 08:20:00,39.4,33.7,30.30,East,87,2.0,2.0,80,0.00,,,0.00,53,Wunderground v.1.15,2013-12-24 16:20:00,
2013-12-24 08:25:00,39.6,33.9,30.30,East,87,1.0,2.0,80,0.00,,,0.00,63,Wunderground v.1.15,2013-12-24 16:25:00,
2013-12-24 08:31:00,39.9,34.2,30.30,East,87,1.0,1.0,80,0.00,,,0.00,70,Wunderground v.1.15,2013-12-24 16:31:00,
2013-12-24 08:37:00,40.3,34.6,30.30,East,87,1.0,2.0,80,0.00,,,0.00,91,Wunderground v.1.15,2013-12-24 16:37:00,
2013-12-24 08:42:00,41.0,35.0,30.30,East,80,1.0,3.0,79,0.00,,,0.00,181,Wunderground v.1.15,2013-12-24 16:42:00,
2013-12-24 08:48:00,42.2,35.8,30.30,ESE,109,1.0,3.0,78,0.00,,,0.00,195,Wunderground v.1.15,2013-12-24 16:48:00,
2013-12-24 08:53:00,43.0,36.0,30.30,West,259,1.0,4.0,76,0.00,,,0.00,202,Wunderground v.1.15,2013-12-24 16:53:00,
2013-12-24 08:58:00,43.7,36.3,30.30,SSW,197,2.0,5.0,75,0.00,,,0.00,216,Wunderground v.1.15,2013-12-24 16:58:00,
2013-12-24 09:04:00,44.3,36.5,30.29,SSW,196,3.0,3.0,74,0.00,,,0.00,237,Wunderground v.1.15,2013-12-24 17:04:00,
2013-12-24 09:09:00,44.8,36.3,30.29,SSW,199,3.0,5.0,72,0.00,,,0.00,246,Wunderground v.1.15,2013-12-24 17:09:00,
2013-12-24 09:14:00,45.3,36.8,30.29,SW,222,3.0,4.0,72,0.00,,,0.00,232,Wunderground v.1.15,2013-12-24 17:14:00,
2013-12-24 09:20:00,45.9,37.0,30.29,SW,223,4.0,4.0,71,0.00,,,0.00,230,Wunderground v.1.15,2013-12-24 17:20:00,
2013-12-24 09:25:00,46.5,37.2,30.29,ESE,114,4.0,5.0,70,0.00,,,0.00,276,Wunderground v.1.15,2013-12-24 17:25:00,
2013-12-24 09:31:00,46.9,36.9,30.30,WSW,244,4.0,7.0,68,0.00,,,0.00,241,Wunderground v.1.15,2013-12-24 17:31:00,
2013-12-24 09:37:00,47.3,37.3,30.29,South,188,4.0,7.0,68,0.00,,,0.00,295,Wunderground v.1.15,2013-12-24 17:37:00,
2013-12-24 09:42:00,47.8,37.7,30.29,SSW,205,4.0,7.0,68,0.00,,,0.00,320,Wunderground v.1.15,2013-12-24 17:42:00,
2013-12-24 09:47:00,48.0,37.6,30.29,SW,232,5.0,7.0,67,0.00,,,0.00,329,Wunderground v.1.15,2013-12-24 17:47:00,
2013-12-24 09:53:00,48.4,37.6,30.29,SSW,205,5.0,7.0,66,0.00,,,0.00,323,Wunderground v.1.15,2013-12-24 17:53:00,
2013-12-24 09:59:00,48.7,37.8,30.29,SE,132,5.0,7.0,66,0.00,,,0.00,313,Wunderground v.1.15,2013-12-24 17:59:00,
2013-12-24 10:05:00,49.2,37.9,30.29,SSW,203,3.0,4.0,65,0.00,,,0.00,355,Wunderground v.1.15,2013-12-24 18:05:00,
2013-12-24 10:10:00,49.8,38.5,30.29,SSE,164,2.0,2.0,65,0.00,,,0.00,373,Wunderground v.1.15,2013-12-24 18:10:00,
2013-12-24 10:15:00,50.1,38.0,30.28,SSW,195,4.0,5.0,63,0.00,,,0.00,366,Wunderground v.1.15,2013-12-24 18:15:00,
2013-12-24 10:20:00,50.3,38.2,30.28,SSW,202,4.0,4.0,63,0.00,,,0.00,390,Wunderground v.1.15,2013-12-24 18:20:00,
2013-12-24 10:25:00,50.7,39.0,30.28,West,281,4.0,6.0,64,0.00,,,0.00,397,Wunderground v.1.15,2013-12-24 18:25:00,
2013-12-24 10:31:00,51.1,38.5,30.28,SSW,205,3.0,4.0,62,0.00,,,0.00,401,Wunderground v.1.15,2013-12-24 18:31:00,
2013-12-24 10:37:00,51.2,38.6,30.28,SW,226,3.0,5.0,62,0.00,,,0.00,359,Wunderground v.1.15,2013-12-24 18:37:00,
2013-12-24 10:42:00,51.6,38.6,30.28,South,186,3.0,5.0,61,0.00,,,0.00,376,Wunderground v.1.15,2013-12-24 18:42:00,
2013-12-24 10:47:00,51.7,38.7,30.28,SSW,202,3.0,5.0,61,0.00,,,0.00,422,Wunderground v.1.15,2013-12-24 18:47:00,
2013-12-24 10:53:00,52.0,38.5,30.27,SW,214,3.0,5.0,60,0.00,,,0.00,425,Wunderground v.1.15,2013-12-24 18:53:00,
2013-12-24 10:58:00,52.2,38.7,30.27,SW,215,3.0,5.0,60,0.00,,,0.00,429,Wunderground v.1.15,2013-12-24 18:58:00,
2013-12-24 11:03:00,52.4,38.9,30.27,SSW,205,3.0,5.0,60,0.00,,,0.00,434,Wunderground v.1.15,2013-12-24 19:03:00,
2013-12-24 11:08:00,52.8,39.3,30.27,West,270,2.0,5.0,60,0.00,,,0.00,429,Wunderground v.1.15,2013-12-24 19:08:00,
2013-12-24 11:14:00,53.4,39.4,30.26,West,261,3.0,4.0,59,0.00,,,0.00,441,Wunderground v.1.15,2013-12-24 19:14:00,
2013-12-24 11:19:00,53.9,39.5,30.26,West,264,3.0,4.0,58,0.00,,,0.00,446,Wunderground v.1.15,2013-12-24 19:19:00,
2013-12-24 11:25:00,54.2,39.7,30.26,WSW,255,3.0,5.0,58,0.00,,,0.00,450,Wunderground v.1.15,2013-12-24 19:25:00,
2013-12-24 11:30:00,54.3,39.8,30.25,WSW,243,3.0,5.0,58,0.00,,,0.00,448,Wunderground v.1.15,2013-12-24 19:30:00,
2013-12-24 11:36:00,54.6,40.1,30.25,West,263,3.0,5.0,58,0.00,,,0.00,455,Wunderground v.1.15,2013-12-24 19:36:00,
2013-12-24 11:41:00,54.8,40.3,30.25,WSW,254,2.0,3.0,58,0.00,,,0.00,461,Wunderground v.1.15,2013-12-24 19:41:00,
2013-12-24 11:46:00,55.1,40.6,30.25,WSW,254,2.0,3.0,58,0.00,,,0.00,461,Wunderground v.1.15,2013-12-24 19:46:00,
2013-12-24 11:51:00,55.8,40.8,30.25,WSW,247,1.0,1.0,57,0.00,,,0.00,462,Wunderground v.1.15,2013-12-24 19:51:00,
2013-12-24 11:57:00,56.7,41.2,30.24,WSW,257,0.0,1.0,56,0.00,,,0.00,462,Wunderground v.1.15,2013-12-24 19:57:00,
2013-12-24 12:02:00,57.2,41.2,30.24,WSW,257,0.0,1.0,55,0.00,,,0.00,462,Wunderground v.1.15,2013-12-24 20:02:00,
2013-12-24 12:08:00,57.7,41.2,30.23,West,274,1.0,4.0,54,0.00,,,0.00,464,Wunderground v.1.15,2013-12-24 20:08:00,
2013-12-24 12:13:00,57.7,41.2,30.23,West,278,2.0,2.0,54,0.00,,,0.00,464,Wunderground v.1.15,2013-12-24 20:13:00,
2013-12-24 12:18:00,57.6,40.6,30.22,West,278,2.0,3.0,53,0.00,,,0.00,464,Wunderground v.1.15,2013-12-24 20:18:00,
2013-12-24 12:23:00,57.9,40.9,30.22,WSW,246,2.0,3.0,53,0.00,,,0.00,462,Wunderground v.1.15,2013-12-24 20:23:00,
2013-12-24 12:28:00,58.1,41.0,30.22,WSW,246,1.0,3.0,53,0.00,,,0.00,455,Wunderground v.1.15,2013-12-24 20:28:00,
2013-12-24 12:34:00,58.7,41.1,30.22,West,262,1.0,2.0,52,0.00,,,0.00,455,Wunderground v.1.15,2013-12-24 20:34:00,
2013-12-24 12:39:00,59.1,41.5,30.21,West,262,1.0,2.0,52,0.00,,,0.00,452,Wunderground v.1.15,2013-12-24 20:39:00,
2013-12-24 12:44:00,59.4,41.3,30.21,West,263,1.0,3.0,51,0.00,,,0.00,450,Wunderground v.1.15,2013-12-24 20:44:00,
2013-12-24 12:50:00,59.4,41.3,30.21,WNW,294,2.0,2.0,51,0.00,,,0.00,448,Wunderground v.1.15,2013-12-24 20:50:00,
2013-12-24 12:55:00,59.3,40.7,30.21,West,280,3.0,4.0,50,0.00,,,0.00,454,Wunderground v.1.15,2013-12-24 20:55:00,
2013-12-24 13:00:00,59.5,40.8,30.21,WNW,288,3.0,3.0,50,0.00,,,0.00,446,Wunderground v.1.15,2013-12-24 21:00:00,
2013-12-24 13:06:00,59.9,41.2,30.20,West,264,2.0,4.0,50,0.00,,,0.00,446,Wunderground v.1.15,2013-12-24 21:06:00,
2013-12-24 13:12:00,60.2,41.5,30.20,West,279,2.0,2.0,50,0.00,,,0.00,425,Wunderground v.1.15,2013-12-24 21:12:00,
2013-12-24 13:18:00,60.6,41.3,30.20,West,279,2.0,3.0,49,0.00,,,0.00,431,Wunderground v.1.15,2013-12-24 21:18:00,
2013-12-24 13:23:00,61.0,41.2,30.19,NW,325,2.0,3.0,48,0.00,,,0.00,420,Wunderground v.1.15,2013-12-24 21:23:00,
2013-12-24 13:28:00,61.2,40.8,30.19,West,270,2.0,4.0,47,0.00,,,0.00,422,Wunderground v.1.15,2013-12-24 21:28:00,
2013-12-24 13:34:00,61.1,41.2,30.19,WNW,302,2.0,5.0,48,0.00,,,0.00,415,Wunderground v.1.15,2013-12-24 21:34:00,
2013-12-24 13:39:00,61.0,41.2,30.19,WNW,296,3.0,5.0,48,0.00,,,0.00,403,Wunderground v.1.15,2013-12-24 21:39:00,
2013-12-24 13:45:00,61.5,41.1,30.19,West,261,3.0,5.0,47,0.00,,,0.00,397,Wunderground v.1.15,2013-12-24 21:45:00,
2013-12-24 13:50:00,61.9,40.9,30.19,WNW,295,2.0,2.0,46,0.00,,,0.00,387,Wunderground v.1.15,2013-12-24 21:50:00,
2013-12-24 13:55:00,62.2,41.2,30.18,West,281,2.0,3.0,46,0.00,,,0.00,387,Wunderground v.1.15,2013-12-24 21:55:00,
2013-12-24 14:00:00,62.1,40.5,30.19,WNW,296,3.0,4.0,45,0.00,,,0.00,364,Wunderground v.1.15,2013-12-24 22:00:00,
2013-12-24 14:06:00,62.3,40.7,30.19,NW,313,3.0,4.0,45,0.00,,,0.00,359,Wunderground v.1.15,2013-12-24 22:06:00,
2013-12-24 14:12:00,62.7,41.0,30.18,North,350,2.0,5.0,45,0.00,,,0.00,346,Wunderground v.1.15,2013-12-24 22:12:00,
2013-12-24 14:17:00,62.7,40.5,30.18,North,355,2.0,5.0,44,0.00,,,0.00,332,Wunderground v.1.15,2013-12-24 22:17:00,
2013-12-24 14:23:00,63.2,40.9,30.18,NW,321,2.0,3.0,44,0.00,,,0.00,323,Wunderground v.1.15,2013-12-24 22:23:00,
2013-12-24 14:28:00,63.0,41.3,30.18,NW,317,2.0,3.0,45,0.00,,,0.00,311,Wunderground v.1.15,2013-12-24 22:28:00,
2013-12-24 14:33:00,63.1,40.8,30.18,NW,313,2.0,3.0,44,0.00,,,0.00,302,Wunderground v.1.15,2013-12-24 22:33:00,
2013-12-24 14:38:00,63.3,41.0,30.18,NW,321,2.0,3.0,44,0.00,,,0.00,290,Wunderground v.1.15,2013-12-24 22:38:00,
2013-12-24 14:44:00,63.5,41.2,30.18,WNW,296,1.0,3.0,44,0.00,,,0.00,281,Wunderground v.1.15,2013-12-24 22:44:00,
2013-12-24 14:49:00,63.6,41.3,30.18,WNW,296,1.0,3.0,44,0.00,,,0.00,269,Wunderground v.1.15,2013-12-24 22:49:00,
2013-12-24 14:54:00,63.4,41.1,30.18,NW,322,2.0,4.0,44,0.00,,,0.00,257,Wunderground v.1.15,2013-12-24 22:54:00,
2013-12-24 15:00:00,63.4,41.1,30.18,NW,318,2.0,3.0,44,0.00,,,0.00,244,Wunderground v.1.15,2013-12-24 23:00:00,
2013-12-24 15:06:00,63.6,41.3,30.18,WNW,297,2.0,3.0,44,0.00,,,0.00,227,Wunderground v.1.15,2013-12-24 23:06:00,
2013-12-24 15:12:00,63.1,40.8,30.18,West,275,2.0,4.0,44,0.00,,,0.00,209,Wunderground v.1.15,2013-12-24 23:12:00,
2013-12-24 15:17:00,62.9,41.2,30.18,West,259,3.0,4.0,45,0.00,,,0.00,195,Wunderground v.1.15,2013-12-24 23:17:00,
2013-12-24 15:22:00,62.9,41.2,30.18,West,269,3.0,4.0,45,0.00,,,0.00,178,Wunderground v.1.15,2013-12-24 23:22:00,
2013-12-24 15:28:00,63.0,41.3,30.18,WNW,298,2.0,4.0,45,0.00,,,0.00,162,Wunderground v.1.15,2013-12-24 23:28:00,
2013-12-24 15:33:00,63.1,40.8,30.18,West,280,2.0,3.0,44,0.00,,,0.00,149,Wunderground v.1.15,2013-12-24 23:33:00,
2013-12-24 15:38:00,63.0,40.7,30.19,WNW,294,2.0,4.0,44,0.00,,,0.00,135,Wunderground v.1.15,2013-12-24 23:38:00,
2013-12-24 15:43:00,62.9,41.2,30.19,WNW,294,2.0,2.0,45,0.00,,,0.00,118,Wunderground v.1.15,2013-12-24 23:43:00,
2013-12-24 15:49:00,63.0,41.3,30.18,WNW,302,2.0,4.0,45,0.00,,,0.00,104,Wunderground v.1.15,2013-12-24 23:49:00,
2013-12-24 15:55:00,62.9,41.2,30.19,WNW,302,2.0,3.0,45,0.00,,,0.00,88,Wunderground v.1.15,2013-12-24 23:55:00,
2013-12-24 16:01:00,62.8,41.1,30.18,NW,318,2.0,2.0,45,0.00,,,0.00,76,Wunderground v.1.15,2013-12-25 00:01:00,
2013-12-24 16:06:00,62.6,41.5,30.19,NW,318,2.0,3.0,46,0.00,,,0.00,62,Wunderground v.1.15,2013-12-25 00:06:00,
2013-12-24 16:11:00,62.5,41.4,30.19,NW,318,1.0,1.0,46,0.00,,,0.00,51,Wunderground v.1.15,2013-12-25 00:11:00,
2013-12-24 16:16:00,62.3,41.8,30.19,NW,318,1.0,2.0,47,0.00,,,0.00,42,Wunderground v.1.15,2013-12-25 00:16:00,
2013-12-24 16:21:00,62.1,41.6,30.19,NW,318,1.0,1.0,47,0.00,,,0.00,32,Wunderground v.1.15,2013-12-25 00:21:00,
2013-12-24 16:27:00,61.8,41.3,30.19,NW,318,1.0,2.0,47,0.00,,,0.00,23,Wunderground v.1.15,2013-12-25 00:27:00,
2013-12-24 16:32:00,61.4,41.5,30.19,NW,318,1.0,1.0,48,0.00,,,0.00,16,Wunderground v.1.15,2013-12-25 00:32:00,
2013-12-24 16:37:00,60.7,40.9,30.19,NW,318,1.0,1.0,48,0.00,,,0.00,12,Wunderground v.1.15,2013-12-25 00:37:00,
2013-12-24 16:43:00,60.1,40.9,30.19,NW,318,1.0,2.0,49,0.00,,,0.00,9,Wunderground v.1.15,2013-12-25 00:43:00,
2013-12-24 16:48:00,59.7,41.0,30.19,NW,317,1.0,2.0,50,0.00,,,0.00,5,Wunderground v.1.15,2013-12-25 00:48:00,
2013-12-24 16:53:00,59.3,40.7,30.19,NW,318,1.0,1.0,50,0.00,,,0.00,0,Wunderground v.1.15,2013-12-25 00:53:00,
2013-12-24 16:59:00,58.9,40.8,30.20,NW,318,1.0,1.0,51,0.00,,,0.00,0,Wunderground v.1.15,2013-12-25 00:59:00,
2013-12-24 17:04:00,58.5,40.4,30.20,NW,318,0.0,1.0,51,0.00,,,0.00,0,Wunderground v.1.15,2013-12-25 01:04:00,
2013-12-24 17:10:00,58.0,40.5,30.20,NW,318,1.0,1.0,52,0.00,,,0.00,0,Wunderground v.1.15,2013-12-25 01:10:00,
2013-12-24 17:15:00,57.7,40.7,30.19,NW,318,1.0,1.0,53,0.00,,,0.00,0,Wunderground v.1.15,2013-12-25 01:15:00,
2013-12-24 17:21:00,57.2,40.2,30.19,NW,318,1.0,1.0,53,0.00,,,0.00,0,Wunderground v.1.15,2013-12-25 01:21:00,
2013-12-24 17:27:00,56.8,40.3,30.19,NW,317,0.0,1.0,54,0.00,,,0.00,0,Wunderground v.1.15,2013-12-25 01:27:00,
2013-12-24 17:32:00,56.2,40.2,30.19,NW,318,1.0,1.0,55,0.00,,,0.00,0,Wunderground v.1.15,2013-12-25 01:32:00,
2013-12-24 17:38:00,55.7,40.7,30.19,NW,318,1.0,1.0,57,0.00,,,0.00,0,Wunderground v.1.15,2013-12-25 01:38:00,
2013-12-24 17:43:00,55.2,40.2,30.19,NW,318,1.0,2.0,57,0.00,,,0.00,0,Wunderground v.1.15,2013-12-25 01:43:00,
2013-12-24 17:48:00,54.8,40.3,30.19,NW,318,1.0,2.0,58,0.00,,,0.00,0,Wunderground v.1.15,2013-12-25 01:48:00,
2013-12-24 17:54:00,54.5,40.5,30.19,NW,318,1.0,1.0,59,0.00,,,0.00,0,Wunderground v.1.15,2013-12-25 01:54:00,
2013-12-24 17:59:00,54.3,40.3,30.19,NW,318,0.0,1.0,59,0.00,,,0.00,0,Wunderground v.1.15,2013-12-25 01:59:00,
2013-12-24 18:04:00,53.9,39.9,30.19,NW,318,0.0,0.0,59,0.00,,,0.00,0,Wunderground v.1.15,2013-12-25 02:04:00,
2013-12-24 18:10:00,53.5,39.9,30.19,NW,318,0.0,0.0,60,0.00,,,0.00,0,Wunderground v.1.15,2013-12-25 02:10:00,
2013-12-24 18:15:00,53.0,39.9,30.19,NW,318,0.0,0.0,61,0.00,,,0.00,0,Wunderground v.1.15,2013-12-25 02:15:00,
2013-12-24 18:21:00,52.5,39.8,30.19,NW,318,0.0,0.0,62,0.00,,,0.00,0,Wunderground v.1.15,2013-12-25 02:21:00,
2013-12-24 18:26:00,52.1,39.5,30.19,NW,318,0.0,0.0,62,0.00,,,0.00,0,Wunderground v.1.15,2013-12-25 02:26:00,
2013-12-24 18:31:00,51.6,39.4,30.19,NW,318,0.0,0.0,63,0.00,,,0.00,0,Wunderground v.1.15,2013-12-25 02:31:00,
2013-12-24 18:37:00,51.3,39.5,30.19,NW,317,0.0,2.0,64,0.00,,,0.00,0,Wunderground v.1.15,2013-12-25 02:37:00,
2013-12-24 18:42:00,51.0,39.2,30.19,NW,317,1.0,1.0,64,0.00,,,0.00,0,Wunderground v.1.15,2013-12-25 02:42:00,
2013-12-24 18:48:00,50.6,39.3,30.19,NW,317,0.0,1.0,65,0.00,,,0.00,0,Wunderground v.1.15,2013-12-25 02:48:00,
2013-12-24 18:53:00,50.2,38.9,30.19,NW,318,0.0,0.0,65,0.00,,,0.00,0,Wunderground v.1.15,2013-12-25 02:53:00,
2013-12-24 18:58:00,49.5,38.6,30.19,NW,318,0.0,1.0,66,0.00,,,0.00,0,Wunderground v.1.15,2013-12-25 02:58:00,
2013-12-24 19:04:00,48.9,38.0,30.19,NW,317,0.0,1.0,66,0.00,,,0.00,0,Wunderground v.1.15,2013-12-25 03:04:00,
2013-12-24 19:09:00,48.4,37.9,30.19,NW,318,0.0,1.0,67,0.00,,,0.00,0,Wunderground v.1.15,2013-12-25 03:09:00,
2013-12-24 19:15:00,47.7,37.7,30.19,NW,318,1.0,1.0,68,0.00,,,0.00,0,Wunderground v.1.15,2013-12-25 03:15:00,
2013-12-24 19:20:00,47.5,37.1,30.19,NW,318,0.0,0.0,67,0.00,,,0.00,0,Wunderground v.1.15,2013-12-25 03:20:00,
2013-12-24 19:25:00,47.3,37.3,30.19,NW,318,0.0,0.0,68,0.00,,,0.00,0,Wunderground v.1.15,2013-12-25 03:25:00,
2013-12-24 19:31:00,47.1,37.1,30.19,NW,318,0.0,1.0,68,0.00,,,0.00,0,Wunderground v.1.15,2013-12-25 03:31:00,
2013-12-24 19:36:00,46.9,37.3,30.20,NW,318,0.0,1.0,69,0.00,,,0.00,0,Wunderground v.1.15,2013-12-25 03:36:00,
2013-12-24 19:42:00,46.8,37.2,30.20,NW,318,0.0,2.0,69,0.00,,,0.00,0,Wunderground v.1.15,2013-12-25 03:42:00,
2013-12-24 19:47:00,46.8,37.5,30.20,NW,318,1.0,2.0,70,0.00,,,0.00,0,Wunderground v.1.15,2013-12-25 03:47:00,
2013-12-24 19:52:00,46.7,37.1,30.20,NW,318,1.0,1.0,69,0.00,,,0.00,0,Wunderground v.1.15,2013-12-25 03:52:00,
2013-12-24 19:58:00,46.4,37.1,30.20,NW,318,0.0,1.0,70,0.00,,,0.00,0,Wunderground v.1.15,2013-12-25 03:58:00,
2013-12-24 20:03:00,46.5,37.6,30.20,NW,318,1.0,2.0,71,0.00,,,0.00,0,Wunderground v.1.15,2013-12-25 04:03:00,
2013-12-24 20:09:00,46.4,37.9,30.20,NW,318,1.0,3.0,72,0.00,,,0.00,0,Wunderground v.1.15,2013-12-25 04:09:00,
2013-12-24 20:14:00,46.7,37.8,30.20,NW,318,1.0,2.0,71,0.00,,,0.00,0,Wunderground v.1.15,2013-12-25 04:14:00,
2013-12-24 20:20:00,46.8,37.5,30.20,NW,318,1.0,1.0,70,0.00,,,0.00,0,Wunderground v.1.15,2013-12-25 04:20:00,
2013-12-24 20:25:00,46.6,37.7,30.20,NW,318,1.0,1.0,71,0.00,,,0.00,0,Wunderground v.1.15,2013-12-25 04:25:00,
2013-12-24 20:30:00,46.3,37.4,30.20,NE,55,1.0,2.0,71,0.00,,,0.00,0,Wunderground v.1.15,2013-12-25 04:30:00,
2013-12-24 20:36:00,46.2,37.3,30.21,NE,56,2.0,2.0,71,0.00,,,0.00,0,Wunderground v.1.15,2013-12-25 04:36:00,
2013-12-24 20:41:00,46.1,37.6,30.21,NE,56,2.0,2.0,72,0.00,,,0.00,0,Wunderground v.1.15,2013-12-25 04:41:00,
2013-12-24 20:47:00,46.1,37.2,30.22,NE,56,1.0,2.0,71,0.00,,,0.00,0,Wunderground v.1.15,2013-12-25 04:47:00,
2013-12-24 20:52:00,46.0,37.1,30.22,NE,56,1.0,1.0,71,0.00,,,0.00,0,Wunderground v.1.15,2013-12-25 04:52:00,
2013-12-24 20:58:00,45.9,37.4,30.22,ENE,57,1.0,2.0,72,0.00,,,0.00,0,Wunderground v.1.15,2013-12-25 04:58:00,
2013-12-24 21:01:00,45.8,37.3,30.22,ENE,57,1.0,1.0,72,0.00,,,0.00,0,Wunderground v.1.15,2013-12-25 05:01:00,
2013-12-24 21:03:00,45.7,36.8,30.22,ENE,57,1.0,1.0,71,0.00,,,0.00,0,Wunderground v.1.15,2013-12-25 05:03:00,
2013-12-24 21:07:00,45.4,36.5,30.22,ENE,57,1.0,1.0,71,0.00,,,0.00,0,Wunderground v.1.15,2013-12-25 05:07:00,
2013-12-24 21:08:00,45.3,36.8,30.22,ENE,57,1.0,1.0,72,0.00,,,0.00,0,Wunderground v.1.15,2013-12-25 05:08:00,
2013-12-24 21:09:00,45.2,36.7,30.22,ENE,57,1.0,1.0,72,0.00,,,0.00,0,Wunderground v.1.15,2013-12-25 05:09:00,
2013-12-24 21:14:00,45.0,36.9,30.22,ENE,57,1.0,2.0,73,0.00,,,0.00,0,Wunderground v.1.15,2013-12-25 05:14:00,
2013-12-24 21:19:00,45.1,36.6,30.22,ENE,57,1.0,2.0,72,0.00,,,0.00,0,Wunderground v.1.15,2013-12-25 05:19:00,
2013-12-24 21:25:00,45.1,36.6,30.22,ENE,76,1.0,2.0,72,0.00,,,0.00,0,Wunderground v.1.15,2013-12-25 05:25:00,
2013-12-24 21:30:00,44.9,36.4,30.22,ESE,110,1.0,1.0,72,0.00,,,0.00,0,Wunderground v.1.15,2013-12-25 05:30:00,
2013-12-24 21:36:00,44.7,36.2,30.23,East,92,2.0,2.0,72,0.00,,,0.00,0,Wunderground v.1.15,2013-12-25 05:36:00,
2013-12-24 21:41:00,44.5,36.0,30.22,East,90,1.0,1.0,72,0.00,,,0.00,0,Wunderground v.1.15,2013-12-25 05:41:00,
2013-12-24 21:47:00,44.2,36.1,30.22,East,90,1.0,1.0,73,0.00,,,0.00,0,Wunderground v.1.15,2013-12-25 05:47:00,
2013-12-24 21:53:00,43.8,35.0,30.23,East,90,1.0,1.0,71,0.00,,,0.00,0,Wunderground v.1.15,2013-12-25 05:53:00,
2013-12-24 21:58:00,43.1,34.7,30.23,East,85,1.0,1.0,72,0.00,,,0.00,0,Wunderground v.1.15,2013-12-25 05:58:00,
2013-12-24 22:03:00,42.1,33.7,30.23,East,85,0.0,1.0,72,0.00,,,0.00,0,Wunderground v.1.15,2013-12-25 06:03:00,
2013-12-24 22:09:00,41.5,34.5,30.23,East,85,0.0,1.0,76,0.00,,,0.00,0,Wunderground v.1.15,2013-12-25 06:09:00,
2013-12-24 22:15:00,41.3,34.3,30.23,East,85,0.0,0.0,76,0.00,,,0.00,0,Wunderground v.1.15,2013-12-25 06:15:00,
2013-12-24 22:20:00,41.0,34.0,30.23,East,85,0.0,0.0,76,0.00,,,0.00,0,Wunderground v.1.15,2013-12-25 06:20:00,
2013-12-24 22:26:00,40.8,34.1,30.23,East,86,0.0,0.0,77,0.00,,,0.00,0,Wunderground v.1.15,2013-12-25 06:26:00,
2013-12-24 22:31:00,40.8,34.1,30.23,East,86,0.0,0.0,77,0.00,,,0.00,0,Wunderground v.1.15,2013-12-25 06:31:00,
2013-12-24 22:36:00,40.6,33.6,30.23,East,86,0.0,0.0,76,0.00,,,0.00,0,Wunderground v.1.15,2013-12-25 06:36:00,
2013-12-24 22:42:00,40.3,33.3,30.23,East,86,0.0,0.0,76,0.00,,,0.00,0,Wunderground v.1.15,2013-12-25 06:42:00,
2013-12-24 22:47:00,40.2,33.9,30.23,East,86,0.0,0.0,78,0.00,,,0.00,0,Wunderground v.1.15,2013-12-25 06:47:00,
2013-12-24 22:53:00,40.3,34.0,30.23,East,86,0.0,1.0,78,0.00,,,0.00,0,Wunderground v.1.15,2013-12-25 06:53:00,
2013-12-24 22:58:00,40.5,34.5,30.23,East,86,0.0,1.0,79,0.00,,,0.00,0,Wunderground v.1.15,2013-12-25 06:58:00,
2013-12-24 23:03:00,40.5,34.2,30.23,East,86,0.0,1.0,78,0.00,,,0.00,0,Wunderground v.1.15,2013-12-25 07:03:00,
2013-12-24 23:09:00,40.5,34.2,30.23,East,86,0.0,1.0,78,0.00,,,0.00,0,Wunderground v.1.15,2013-12-25 07:09:00,
2013-12-24 23:14:00,40.9,34.9,30.23,East,85,1.0,1.0,79,0.00,,,0.00,0,Wunderground v.1.15,2013-12-25 07:14:00,
2013-12-24 23:19:00,41.1,34.8,30.23,East,84,1.0,1.0,78,0.00,,,0.00,0,Wunderground v.1.15,2013-12-25 07:19:00,
2013-12-24 23:21:00,41.2,34.9,30.23,East,84,1.0,1.0,78,0.00,,,0.00,0,Wunderground v.1.15,2013-12-25 07:21:00,
2013-12-24 23:26:00,41.3,34.6,30.23,East,84,1.0,1.0,77,0.00,,,0.00,0,Wunderground v.1.15,2013-12-25 07:26:00,
2013-12-24 23:31:00,41.4,34.7,30.23,East,84,1.0,1.0,77,0.00,,,0.00,0,Wunderground v.1.15,2013-12-25 07:31:00,
2013-12-24 23:37:00,41.6,34.9,30.23,NNE,24,1.0,2.0,77,0.00,,,0.00,0,Wunderground v.1.15,2013-12-25 07:37:00,
2013-12-24 23:42:00,42.3,35.3,30.23,NNE,25,1.0,1.0,76,0.00,,,0.00,0,Wunderground v.1.15,2013-12-25 07:42:00,
2013-12-24 23:47:00,42.4,35.0,30.23,NNE,25,1.0,1.0,75,0.00,,,0.00,0,Wunderground v.1.15,2013-12-25 07:47:00,
2013-12-24 23:52:00,42.6,35.2,30.23,NNE,25,1.0,2.0,75,0.00,,,0.00,0,Wunderground v.1.15,2013-12-25 07:52:00,
2013-12-24 23:57:00,42.9,35.2,30.23,NNE,26,2.0,3.0,74,0.00,,,0.00,0,Wunderground v.1.15,2013-12-25 07:57:00,